createdAt,value
2019-01-11T00:00:48.866Z,0.90
2019-01-11T00:03:17.434Z,0.75
2019-01-11T00:05:46.241Z,1.55
2019-01-11T00:08:14.745Z,1.25
2019-01-11T00:10:43.434Z,0.90
2019-01-11T00:13:12.105Z,1.40
2019-01-11T00:15:40.608Z,2.65
2019-01-11T00:18:09.523Z,1.22
2019-01-11T00:20:38.037Z,0.78
2019-01-11T00:23:06.701Z,1.17
2019-01-11T00:25:35.174Z,0.90
2019-01-11T00:28:03.920Z,1.20
2019-01-11T00:30:32.349Z,1.92
2019-01-11T00:33:01.713Z,1.42
2019-01-11T00:35:30.229Z,1.62
2019-01-11T00:37:58.646Z,1.00
2019-01-11T00:40:27.337Z,1.07
2019-01-11T00:42:55.757Z,1.45
2019-01-11T00:45:24.449Z,1.55
2019-01-11T00:47:53.113Z,2.05
2019-01-11T00:50:22.513Z,3.00
2019-01-11T00:52:51.244Z,1.60
2019-01-11T00:55:19.760Z,1.20
2019-01-11T00:57:48.518Z,1.02
2019-01-11T01:00:22.364Z,1.85
2019-01-11T01:02:51.562Z,0.90
2019-01-11T01:05:20.445Z,1.20
2019-01-11T01:07:49.104Z,1.25
2019-01-11T01:10:19.565Z,2.62
2019-01-11T01:12:48.090Z,1.82
2019-01-11T01:15:17.041Z,1.45
2019-01-11T01:17:45.461Z,1.02
2019-01-11T01:20:16.042Z,1.07
2019-01-11T01:22:44.785Z,1.27
2019-01-11T01:25:13.766Z,1.60
2019-01-11T01:27:42.250Z,1.32
2019-01-11T01:30:18.418Z,1.67
2019-01-11T01:32:47.317Z,1.40
2019-01-11T01:35:15.888Z,1.45
2019-01-11T01:37:44.993Z,2.20
2019-01-11T01:40:15.974Z,1.85
2019-01-11T01:42:44.462Z,1.10
2019-01-11T01:45:16.011Z,3.47
2019-01-11T01:47:44.829Z,2.27
2019-01-11T01:50:14.413Z,1.00
2019-01-11T01:52:42.976Z,1.17
2019-01-11T01:55:14.170Z,1.27
2019-01-11T01:57:42.572Z,2.00
2019-01-11T02:00:14.217Z,1.42
2019-01-11T02:02:42.957Z,1.32
2019-01-11T02:05:11.627Z,1.40
2019-01-11T02:07:40.049Z,3.05
2019-01-11T02:10:11.034Z,1.55
2019-01-11T02:12:39.592Z,3.75
2019-01-11T02:15:10.034Z,1.85
2019-01-11T02:17:38.584Z,2.60
2019-01-11T02:20:15.273Z,1.50
2019-01-11T02:22:44.382Z,2.25
2019-01-11T02:25:13.260Z,1.30
2019-01-11T02:27:42.001Z,2.92
2019-01-11T02:30:19.251Z,1.55
2019-01-11T02:32:52.544Z,3.27
2019-01-11T02:35:17.966Z,2.50
2019-01-11T02:37:46.850Z,2.50
2019-01-11T02:40:15.343Z,3.27
2019-01-11T02:42:43.773Z,1.40
2019-01-11T02:45:17.820Z,1.55
2019-01-11T02:47:46.753Z,1.15
2019-01-11T02:50:16.423Z,1.40
2019-01-11T02:52:45.400Z,2.62
2019-01-11T02:55:14.197Z,2.10
2019-01-11T02:57:42.773Z,1.62
2019-01-11T03:00:16.758Z,1.30
2019-01-11T03:02:45.541Z,1.80
2019-01-11T03:05:14.512Z,1.40
2019-01-11T03:07:43.165Z,1.60
2019-01-11T03:10:16.898Z,1.60
2019-01-11T03:12:45.408Z,2.65
2019-01-11T03:15:14.887Z,2.50
2019-01-11T03:17:43.714Z,2.77
2019-01-11T03:20:14.627Z,2.00
2019-01-11T03:22:43.491Z,1.60
2019-01-11T03:25:14.010Z,1.50
2019-01-11T03:27:42.554Z,2.17
2019-01-11T03:30:16.844Z,1.40
2019-01-11T03:32:45.588Z,1.42
2019-01-11T03:35:18.083Z,2.10
2019-01-11T03:37:48.382Z,1.92
2019-01-11T03:40:21.812Z,7.78
2019-01-11T03:42:50.626Z,1.45
2019-01-11T03:45:20.986Z,1.82
2019-01-11T03:47:49.482Z,4.12
2019-01-11T03:50:19.557Z,2.85
2019-01-11T03:52:48.437Z,2.77
2019-01-11T03:55:18.054Z,2.20
2019-01-11T03:57:46.957Z,1.52
2019-01-11T04:00:20.180Z,1.60
2019-01-11T04:02:48.941Z,2.75
2019-01-11T04:05:17.599Z,4.12
2019-01-11T04:07:46.346Z,2.08
2019-01-11T04:10:17.365Z,1.72
2019-01-11T04:12:45.996Z,2.50
2019-01-11T04:15:16.653Z,2.33
2019-01-11T04:17:46.896Z,1.37
2019-01-11T04:20:18.029Z,2.62
2019-01-11T04:22:54.294Z,2.65
2019-01-11T04:25:24.363Z,2.00
2019-01-11T04:27:53.122Z,1.70
2019-01-11T04:30:21.994Z,1.95
2019-01-11T04:32:50.580Z,2.75
2019-01-11T04:35:19.201Z,2.33
2019-01-11T04:37:47.796Z,2.37
2019-01-11T04:40:17.150Z,4.47
2019-01-11T04:42:45.890Z,1.95
2019-01-11T04:45:14.470Z,2.45
2019-01-11T04:47:43.170Z,1.90
2019-01-11T04:50:14.138Z,3.87
2019-01-11T04:52:42.553Z,2.77
2019-01-11T04:55:11.231Z,4.28
2019-01-11T04:57:39.709Z,3.77
2019-01-11T05:00:16.793Z,2.70
2019-01-11T05:02:45.555Z,3.02
2019-01-11T05:05:14.070Z,2.65
2019-01-11T05:07:42.733Z,3.35
2019-01-11T05:10:13.708Z,2.75
2019-01-11T05:12:42.373Z,4.15
2019-01-11T05:15:11.045Z,2.65
2019-01-11T05:17:39.465Z,2.60
2019-01-11T05:20:16.562Z,2.60
2019-01-11T05:22:41.250Z,4.95
2019-01-11T05:25:09.917Z,3.00
2019-01-11T05:27:38.408Z,5.00
2019-01-11T05:30:13.069Z,5.72
2019-01-11T05:32:41.758Z,5.75
2019-01-11T05:35:11.364Z,3.27
2019-01-11T05:37:39.786Z,2.77
2019-01-11T05:40:11.574Z,4.10
2019-01-11T05:42:39.997Z,5.62
2019-01-11T05:45:08.572Z,3.33
2019-01-11T05:47:37.000Z,3.70
2019-01-11T05:50:08.812Z,4.40
2019-01-11T05:52:37.229Z,3.80
2019-01-11T05:55:08.273Z,3.47
2019-01-11T05:57:38.350Z,3.95
2019-01-11T06:00:09.804Z,4.78
2019-01-11T06:02:38.297Z,4.33
2019-01-11T06:05:08.135Z,4.75
2019-01-11T06:07:38.321Z,5.37
2019-01-11T06:10:10.485Z,5.47
2019-01-11T06:12:38.914Z,5.80
2019-01-11T06:15:07.590Z,3.15
2019-01-11T06:17:36.270Z,4.12
2019-01-11T06:20:07.761Z,5.53
2019-01-11T06:22:36.266Z,5.00
2019-01-11T06:25:06.266Z,5.05
2019-01-11T06:27:35.578Z,4.40
2019-01-11T06:30:13.674Z,7.03
2019-01-11T06:32:42.109Z,7.42
2019-01-11T06:35:10.721Z,5.25
2019-01-11T06:37:39.205Z,5.47
2019-01-11T06:40:10.118Z,6.45
2019-01-11T06:42:38.801Z,6.03
2019-01-11T06:45:09.625Z,4.92
2019-01-11T06:47:39.055Z,5.97
2019-01-11T06:50:11.044Z,7.70
2019-01-11T06:52:39.481Z,7.12
2019-01-11T06:55:08.971Z,4.83
2019-01-11T06:57:37.461Z,11.55
2019-01-11T07:00:17.037Z,4.60
2019-01-11T07:02:45.544Z,5.62
2019-01-11T07:05:14.036Z,5.15
2019-01-11T07:07:43.477Z,8.23
2019-01-11T07:10:22.717Z,6.80
2019-01-11T07:12:51.149Z,6.20
2019-01-11T07:15:19.642Z,6.83
2019-01-11T07:17:48.065Z,7.22
2019-01-11T07:20:16.553Z,8.18
2019-01-11T07:22:45.661Z,6.22
2019-01-11T07:25:16.898Z,8.68
2019-01-11T07:27:46.978Z,9.83
2019-01-11T07:30:16.377Z,5.90
2019-01-11T07:32:44.814Z,7.50
2019-01-11T07:35:13.468Z,7.33
2019-01-11T07:37:44.869Z,5.62
2019-01-11T07:40:24.687Z,5.67
2019-01-11T07:42:53.446Z,8.03
2019-01-11T07:45:21.861Z,6.55
2019-01-11T07:47:50.397Z,5.03
2019-01-11T07:50:19.011Z,7.60
2019-01-11T07:52:47.453Z,8.53
2019-01-11T07:55:20.410Z,10.90
2019-01-11T07:57:49.129Z,7.17
2019-01-11T08:00:19.169Z,6.35
2019-01-11T08:02:47.601Z,9.08
2019-01-11T08:05:19.349Z,7.55
2019-01-11T08:07:47.913Z,7.83
2019-01-11T08:10:17.209Z,8.50
2019-01-11T08:12:45.646Z,7.75
2019-01-11T08:15:17.256Z,8.90
2019-01-11T08:17:47.292Z,10.28
2019-01-11T08:20:15.718Z,10.28
2019-01-11T08:22:44.217Z,9.23
2019-01-11T08:25:14.551Z,11.45
2019-01-11T08:27:45.130Z,10.70
2019-01-11T08:30:16.794Z,9.80
2019-01-11T08:32:45.472Z,9.88
2019-01-11T08:35:14.921Z,9.20
2019-01-11T08:37:43.802Z,10.05
2019-01-11T08:40:12.945Z,8.95
2019-01-11T08:42:41.617Z,13.75
2019-01-11T08:45:15.067Z,10.58
2019-01-11T08:47:45.150Z,10.95
2019-01-11T08:50:16.516Z,9.35
2019-01-11T08:52:47.989Z,8.95
2019-01-11T08:55:17.103Z,11.05
2019-01-11T08:57:48.433Z,8.98
2019-01-11T09:00:17.320Z,10.78
2019-01-11T09:02:50.309Z,10.53
2019-01-11T09:05:19.319Z,14.00
2019-01-11T09:07:47.813Z,13.13
2019-01-11T09:10:22.598Z,14.87
2019-01-11T09:12:49.139Z,12.30
2019-01-11T09:15:17.893Z,12.37
2019-01-11T09:17:53.808Z,12.28
2019-01-11T09:20:23.866Z,15.25
2019-01-11T09:22:52.538Z,13.70
2019-01-11T09:25:23.717Z,12.63
2019-01-11T09:27:52.401Z,11.90
2019-01-11T09:30:22.198Z,11.28
2019-01-11T09:32:51.395Z,13.75
2019-01-11T09:35:19.867Z,12.13
2019-01-11T09:37:48.601Z,13.85
2019-01-11T09:40:17.170Z,9.83
2019-01-11T09:42:45.861Z,11.60
2019-01-11T09:45:14.555Z,9.60
2019-01-11T09:47:43.077Z,10.50
2019-01-11T09:50:11.761Z,11.28
2019-01-11T09:52:40.341Z,10.68
2019-01-11T09:55:09.633Z,11.80
2019-01-11T09:57:38.378Z,10.00
2019-01-11T10:00:13.174Z,10.65
2019-01-11T10:02:42.122Z,11.88
2019-01-11T10:05:11.001Z,12.00
2019-01-11T10:07:39.735Z,11.53
2019-01-11T10:10:11.453Z,10.28
2019-01-11T10:12:41.598Z,16.42
2019-01-11T10:15:13.683Z,13.72
2019-01-11T10:17:43.064Z,12.93
2019-01-11T10:20:12.959Z,15.15
2019-01-11T10:22:41.882Z,15.00
2019-01-11T10:25:11.134Z,10.15
2019-01-11T10:27:40.098Z,14.10
2019-01-11T10:30:14.452Z,17.05
2019-01-11T10:32:42.885Z,11.40
2019-01-11T10:35:11.912Z,12.23
2019-01-11T10:37:40.493Z,12.73
2019-01-11T10:40:11.922Z,17.15
2019-01-11T10:42:40.485Z,13.28
2019-01-11T10:45:12.121Z,12.65
2019-01-11T10:47:40.549Z,11.12
2019-01-11T10:50:12.700Z,15.32
2019-01-11T10:52:41.456Z,13.70
2019-01-11T10:55:12.105Z,11.53
2019-01-11T10:57:40.880Z,15.03
2019-01-11T11:00:12.369Z,12.47
2019-01-11T11:02:41.056Z,18.05
2019-01-11T11:05:09.717Z,14.87
2019-01-11T11:07:38.157Z,14.18
2019-01-11T11:10:09.111Z,15.15
2019-01-11T11:12:37.797Z,15.95
2019-01-11T11:15:09.564Z,12.20
2019-01-11T11:17:38.140Z,14.18
2019-01-11T11:20:09.497Z,17.82
2019-01-11T11:22:38.201Z,13.95
2019-01-11T11:25:11.981Z,12.68
2019-01-11T11:27:40.495Z,12.60
2019-01-11T11:30:14.072Z,15.83
2019-01-11T11:32:58.578Z,13.25
2019-01-11T11:35:27.229Z,13.35
2019-01-11T11:37:56.002Z,11.83
2019-01-11T11:40:24.727Z,13.95
2019-01-11T11:42:53.297Z,14.90
2019-01-11T11:45:21.713Z,15.10
2019-01-11T11:47:50.153Z,13.88
2019-01-11T11:50:18.574Z,12.78
2019-01-11T11:52:47.078Z,16.77
2019-01-11T11:55:15.633Z,13.98
2019-01-11T11:57:44.237Z,14.20
2019-01-11T12:00:18.613Z,13.18
2019-01-11T12:02:47.434Z,19.85
2019-01-11T12:05:16.838Z,19.27
2019-01-11T12:07:45.421Z,21.33
2019-01-11T12:10:16.118Z,21.17
2019-01-11T12:12:44.878Z,14.05
2019-01-11T12:15:14.637Z,17.75
2019-01-11T12:17:43.241Z,20.90
2019-01-11T12:20:23.410Z,16.35
2019-01-11T12:22:51.981Z,18.35
2019-01-11T12:25:20.402Z,18.42
2019-01-11T12:27:49.614Z,18.57
2019-01-11T12:30:18.587Z,20.00
2019-01-11T12:32:47.330Z,19.75
2019-01-11T12:35:15.830Z,19.60
2019-01-11T12:37:44.261Z,17.42
2019-01-11T12:40:14.798Z,18.05
2019-01-11T12:42:43.486Z,30.65
2019-01-11T12:45:14.241Z,17.37
2019-01-11T12:47:42.776Z,21.52
2019-01-11T12:50:15.117Z,18.48
2019-01-11T12:52:43.621Z,19.52
2019-01-11T12:55:12.532Z,18.98
2019-01-11T12:57:41.222Z,20.65
2019-01-11T13:00:15.609Z,20.72
2019-01-11T13:02:44.224Z,15.08
2019-01-11T13:05:15.561Z,17.15
2019-01-11T13:07:44.073Z,23.95
2019-01-11T13:10:15.154Z,19.32
2019-01-11T13:12:43.853Z,22.25
2019-01-11T13:15:14.633Z,24.95
2019-01-11T13:17:43.127Z,18.57
2019-01-11T13:20:13.502Z,22.48
2019-01-11T13:22:42.202Z,22.82
2019-01-11T13:25:10.829Z,17.55
2019-01-11T13:27:39.566Z,24.00
2019-01-11T13:30:13.619Z,21.15
2019-01-11T13:32:42.438Z,17.80
2019-01-11T13:35:11.265Z,28.12
2019-01-11T13:37:40.038Z,23.12
2019-01-11T13:40:11.598Z,17.50
2019-01-11T13:42:40.022Z,20.90
2019-01-11T13:45:09.415Z,21.93
2019-01-11T13:47:37.843Z,19.52
2019-01-11T13:50:09.627Z,23.22
2019-01-11T13:52:38.050Z,20.10
2019-01-11T13:55:06.558Z,17.90
2019-01-11T13:57:35.241Z,20.10
2019-01-11T14:00:05.894Z,20.52
2019-01-11T14:02:34.373Z,20.97
2019-01-11T14:05:03.081Z,23.65
2019-01-11T14:07:31.499Z,22.20
2019-01-11T14:09:59.943Z,20.85
2019-01-11T14:12:28.612Z,16.50
2019-01-11T14:14:57.308Z,22.40
2019-01-11T14:17:25.722Z,21.52
2019-01-11T14:19:54.162Z,20.92
2019-01-11T14:22:22.867Z,24.10
2019-01-11T14:24:51.302Z,21.02
2019-01-11T14:27:19.969Z,23.27
2019-01-11T14:29:48.406Z,21.02
2019-01-11T14:32:16.825Z,19.07
2019-01-11T14:34:45.586Z,23.15
2019-01-11T14:37:14.262Z,22.90
2019-01-11T14:39:42.948Z,24.25
2019-01-11T14:42:11.618Z,21.20
2019-01-11T14:44:40.301Z,23.92
2019-01-11T14:47:09.197Z,21.37
2019-01-11T14:49:37.686Z,22.90
2019-01-11T14:52:06.538Z,24.25
2019-01-11T14:54:34.973Z,23.52
2019-01-11T14:57:03.394Z,20.25
2019-01-11T14:59:31.898Z,18.32
2019-01-11T15:02:00.441Z,18.75
2019-01-11T15:04:28.860Z,20.85
2019-01-11T15:06:57.369Z,20.02
2019-01-11T15:09:26.057Z,23.40
2019-01-11T15:11:54.811Z,21.52
2019-01-11T15:14:23.585Z,20.68
2019-01-11T15:16:52.021Z,23.52
2019-01-11T15:19:20.980Z,23.42
2019-01-11T15:21:49.752Z,19.17
2019-01-11T15:24:18.177Z,17.85
2019-01-11T15:26:46.617Z,17.70
2019-01-11T15:29:15.038Z,17.62
2019-01-11T15:31:44.538Z,18.82
2019-01-11T15:34:13.214Z,16.77
2019-01-11T15:36:41.658Z,17.65
2019-01-11T15:39:10.083Z,22.75
2019-01-11T15:41:38.517Z,20.70
2019-01-11T15:44:07.014Z,12.98
2019-01-11T15:46:35.710Z,19.90
2019-01-11T15:49:04.538Z,17.30
2019-01-11T15:51:32.993Z,18.50
2019-01-11T15:54:01.423Z,18.35
2019-01-11T15:56:29.857Z,18.57
2019-01-11T15:58:58.281Z,14.55
2019-01-11T16:01:27.465Z,16.77
2019-01-11T16:03:56.152Z,17.80
2019-01-11T16:06:27.093Z,13.60
2019-01-11T16:09:33.174Z,15.38
2019-01-11T16:12:04.921Z,15.10
2019-01-11T16:14:36.439Z,16.40
2019-01-11T16:17:08.669Z,16.62
2019-01-11T16:19:37.109Z,17.32
2019-01-11T16:22:05.917Z,14.80
2019-01-11T16:24:34.426Z,17.65
2019-01-11T16:27:03.121Z,12.73
2019-01-11T16:29:31.805Z,12.78
2019-01-11T16:32:00.225Z,15.13
2019-01-11T16:34:32.979Z,16.25
2019-01-11T16:37:05.192Z,15.53
2019-01-11T16:39:33.937Z,18.12
2019-01-11T16:42:02.386Z,17.07
2019-01-11T16:44:30.870Z,15.85
2019-01-11T16:46:59.298Z,19.32
2019-01-11T16:49:27.745Z,16.00
2019-01-11T16:51:56.174Z,13.13
2019-01-11T16:54:24.606Z,21.52
2019-01-11T16:56:53.286Z,14.00
2019-01-11T16:59:27.739Z,19.90
2019-01-11T17:01:56.482Z,16.67
2019-01-11T17:04:24.921Z,17.90
2019-01-11T17:06:53.350Z,20.85
2019-01-11T17:09:23.417Z,23.07
2019-01-11T17:11:51.825Z,15.32
2019-01-11T17:14:20.261Z,18.70
2019-01-11T17:16:48.681Z,16.25
2019-01-11T17:19:17.110Z,16.97
2019-01-11T17:21:45.869Z,16.77
2019-01-11T17:24:14.286Z,14.50
2019-01-11T17:26:42.724Z,16.60
2019-01-11T17:29:11.398Z,18.75
2019-01-11T17:31:39.844Z,13.70
2019-01-11T17:34:08.261Z,18.42
2019-01-11T17:36:36.693Z,12.68
2019-01-11T17:39:07.273Z,14.65
2019-01-11T17:41:36.002Z,11.00
2019-01-11T17:44:05.025Z,16.27
2019-01-11T17:46:33.457Z,15.32
2019-01-11T17:49:02.130Z,16.15
2019-01-11T17:51:30.706Z,13.88
2019-01-11T17:53:59.125Z,14.40
2019-01-11T17:56:27.570Z,18.32
2019-01-11T17:58:56.269Z,20.85
2019-01-11T18:01:25.531Z,18.20
2019-01-11T18:03:54.261Z,16.97
2019-01-11T18:06:22.998Z,15.23
2019-01-11T18:08:51.681Z,15.28
2019-01-11T18:11:20.134Z,21.65
2019-01-11T18:13:48.555Z,21.37
2019-01-11T18:16:17.058Z,13.15
2019-01-11T18:18:45.481Z,15.23
2019-01-11T18:21:13.918Z,15.85
2019-01-11T18:23:42.346Z,16.73
2019-01-11T18:26:11.149Z,13.58
2019-01-11T18:28:39.582Z,20.68
2019-01-11T18:31:08.018Z,14.47
2019-01-11T18:33:36.441Z,10.58
2019-01-11T18:36:04.945Z,13.72
2019-01-11T18:38:33.371Z,18.85
2019-01-11T18:41:01.809Z,14.00
2019-01-11T18:43:30.253Z,15.20
2019-01-11T18:45:58.737Z,13.55
2019-01-11T18:48:27.171Z,14.70
2019-01-11T18:50:55.674Z,16.00
2019-01-11T18:53:24.105Z,14.50
2019-01-11T18:55:52.786Z,16.07
2019-01-11T18:58:21.477Z,13.75
2019-01-11T19:00:49.944Z,14.93
2019-01-11T19:03:18.680Z,14.10
2019-01-11T19:05:48.652Z,16.10
2019-01-11T19:08:17.494Z,15.95
2019-01-11T19:10:46.239Z,12.58
2019-01-11T19:13:14.761Z,15.40
2019-01-11T19:15:43.475Z,15.53
2019-01-11T19:18:11.957Z,15.35
2019-01-11T19:20:40.379Z,13.62
2019-01-11T19:23:09.068Z,13.35
2019-01-11T19:25:37.557Z,15.35
2019-01-11T19:28:06.289Z,16.25
2019-01-11T19:30:35.034Z,12.80
2019-01-11T19:33:03.468Z,15.38
2019-01-11T19:35:32.297Z,15.50
2019-01-11T19:38:00.811Z,16.45
2019-01-11T19:40:29.244Z,14.50
2019-01-11T19:42:57.680Z,17.40
2019-01-11T19:45:26.124Z,16.45
2019-01-11T19:47:54.643Z,19.35
2019-01-11T19:50:23.860Z,14.90
2019-01-11T19:52:52.441Z,16.25
2019-01-11T19:55:22.799Z,16.57
2019-01-11T19:57:55.476Z,14.95
2019-01-11T20:00:26.344Z,14.53
2019-01-11T20:02:55.044Z,14.70
2019-01-11T20:05:23.809Z,14.28
2019-01-11T20:07:52.906Z,19.40
2019-01-11T20:10:30.074Z,14.38
2019-01-11T20:12:58.633Z,18.62
2019-01-11T20:15:27.398Z,16.23
2019-01-11T20:17:56.002Z,16.37
2019-01-11T20:20:24.568Z,16.45
2019-01-11T20:22:53.056Z,18.82
2019-01-11T20:25:23.485Z,16.70
2019-01-11T20:27:52.037Z,19.00
2019-01-11T20:30:25.559Z,18.95
2019-01-11T20:32:54.120Z,16.52
2019-01-11T20:35:22.950Z,16.27
2019-01-11T20:37:51.905Z,14.35
2019-01-11T20:40:20.514Z,15.83
2019-01-11T20:42:49.006Z,18.37
2019-01-11T20:45:19.187Z,13.68
2019-01-11T20:47:47.670Z,16.57
2019-01-11T20:50:18.050Z,14.98
2019-01-11T20:52:46.609Z,11.60
2019-01-11T20:55:15.193Z,14.95
2019-01-11T20:57:44.206Z,13.15
2019-01-11T21:00:21.460Z,11.05
2019-01-11T21:02:50.106Z,10.60
2019-01-11T21:05:18.798Z,13.45
2019-01-11T21:07:47.348Z,12.58
2019-01-11T21:10:16.226Z,14.40
2019-01-11T21:12:44.718Z,13.05
2019-01-11T21:15:18.446Z,14.63
2019-01-11T21:17:47.010Z,12.50
2019-01-11T21:20:17.492Z,11.22
2019-01-11T21:22:46.117Z,12.75
2019-01-11T21:25:16.386Z,9.80
2019-01-11T21:27:45.046Z,9.80
2019-01-11T21:30:22.589Z,13.28
2019-01-11T21:32:51.152Z,10.70
2019-01-11T21:35:19.680Z,13.93
2019-01-11T21:37:48.481Z,11.03
2019-01-11T21:40:18.858Z,13.55
2019-01-11T21:42:47.718Z,13.10
2019-01-11T21:45:16.689Z,11.35
2019-01-11T21:47:45.178Z,12.95
2019-01-11T21:50:18.870Z,12.68
2019-01-11T21:52:47.353Z,12.30
2019-01-11T21:55:15.938Z,14.05
2019-01-11T21:57:45.177Z,10.50
2019-01-11T22:00:22.373Z,12.20
2019-01-11T22:02:50.912Z,12.30
2019-01-11T22:05:19.410Z,11.90
2019-01-11T22:07:48.157Z,13.85
2019-01-11T22:10:17.975Z,12.40
2019-01-11T22:12:47.639Z,11.73
2019-01-11T22:15:22.549Z,11.53
2019-01-11T22:17:50.969Z,13.08
2019-01-11T22:20:19.564Z,11.33
2019-01-11T22:22:48.069Z,10.50
2019-01-11T22:25:17.642Z,14.07
2019-01-11T22:27:46.065Z,12.35
2019-01-11T22:30:29.956Z,11.93
2019-01-11T22:32:53.261Z,12.50
2019-01-11T22:35:22.115Z,11.05
2019-01-11T22:37:50.616Z,11.63
2019-01-11T22:40:23.521Z,9.90
2019-01-11T22:42:56.629Z,12.37
2019-01-11T22:45:25.181Z,11.53
2019-01-11T22:47:53.615Z,11.70
2019-01-11T22:50:22.286Z,12.10
2019-01-11T22:52:52.317Z,12.10
2019-01-11T22:55:20.935Z,10.93
2019-01-11T22:57:49.623Z,13.60
2019-01-11T23:00:28.798Z,14.15
2019-01-11T23:02:59.150Z,14.25
2019-01-11T23:05:27.570Z,12.85
2019-01-11T23:07:56.949Z,11.83
2019-01-11T23:10:34.533Z,15.20
2019-01-11T23:13:03.047Z,12.53
2019-01-11T23:15:31.886Z,12.28
2019-01-11T23:18:00.304Z,13.90
2019-01-11T23:20:28.989Z,13.35
2019-01-11T23:22:57.697Z,13.72
2019-01-11T23:25:26.568Z,12.15
2019-01-11T23:27:54.990Z,10.70
2019-01-11T23:30:23.489Z,13.60
2019-01-11T23:32:51.913Z,13.40
2019-01-11T23:35:20.371Z,13.75
2019-01-11T23:37:48.853Z,11.12
2019-01-11T23:40:17.745Z,12.95
2019-01-11T23:42:46.430Z,11.90
2019-01-11T23:45:15.125Z,12.60
2019-01-11T23:47:43.563Z,13.05
2019-01-11T23:50:14.098Z,11.63
2019-01-11T23:52:42.590Z,15.55
2019-01-11T23:55:11.969Z,10.78
2019-01-11T23:57:40.388Z,14.03
